Flight Track Log - Related Links

Times and Time Zones

All times are in EDT time to prevent confusion due to time zone crossing. See the ACK8 flight status page for this flight to view local times or setup timezone preferences in your user account.

Time Position Orientation Groundspeed Altitude Reporting Facility
EDT Latitude Longitude Course Direction KTS MPH feet Rate Location/Type
Fri 07:08:00 PM 41.4156 -70.1360 336° Northwest  Level FlightAware Approximate
Fri 07:09:00 PM 41.4481 -70.1555 336° Northwest  Level FlightAware Approximate
Fri 07:10:00 PM 41.4806 -70.1746 337° Northwest  Level FlightAware Approximate
Fri 07:11:00 PM 41.5133 -70.1933 337° Northwest  Level FlightAware Approximate
Fri 07:12:00 PM 41.5460 -70.2120 337° Northwest  Level FlightAware Approximate
Fri 07:13:00 PM 41.5787 -70.2307 337° Northwest  Level FlightAware Approximate
Fri 07:14:00 PM 41.6126 -70.2450 343° North  Level FlightAware Approximate
Fri 07:15:00 PM 41.6467 -70.2587 343° North  Level FlightAware Approximate
Fri 07:16:00 PM 41.6667 -70.2667 343° North  Level FlightAware Approximate
Fri 07:17:00 PM 41.6693 -70.2804 343° North  Level Estimated
Fri 07:18:00 PM 41.6693 -70.2804 343° North  Level Estimated
Fri 07:19:00 PM 41.6693 -70.2804 343° North  Level Estimated
Fri 07:20:00 PM 41.6693 -70.2804 343° North  Level Estimated
Fri 07:21:00 PM 41.6693 -70.2804 343° North  Level Estimated
Fri 07:22:00 PM 41.6693 -70.2804 343° North  Level Estimated
Fri 07:23:00 PM 41.6693 -70.2804 343° North  Level Estimated
Fri 07:24:00 PM 41.6693 -70.2804 343° North  Level Estimated
Fri 07:25:00 PM 41.6693 -70.2804 343° North  Level Estimated
Fri 07:26:00 PM 41.6693 -70.2804 343° North  Level Estimated
Fri 07:27:00 PM 41.6693 -70.2804 343° North  Level Estimated
Fri 07:28:00 PM 41.6693 -70.2804 343° North  Level Estimated
Fri 07:29:00 PM 41.6693 -70.2804 343° North  Level Estimated
Fri 07:30:00 PM 41.6693 -70.2804 343° North  Level Estimated

Login

Don't have an account? Register now (free) for customized features, flight alerts, and more!